sensor_id;sensor_type;location;lat;lon;timestamp;pressure;altitude;pressure_sealevel;temperature;humidity
4705;BME280;2366;51.332;6.610;2023-12-20T00:00:15;101388.53;;;12.21;81.23
4705;BME280;2366;51.332;6.610;2023-12-20T00:02:41;101396.25;;;12.09;79.70
4705;BME280;2366;51.332;6.610;2023-12-20T00:05:10;101387.19;;;11.98;80.90
4705;BME280;2366;51.332;6.610;2023-12-20T00:07:35;101386.59;;;11.92;81.12
4705;BME280;2366;51.332;6.610;2023-12-20T00:10:00;101379.09;;;11.83;80.78
4705;BME280;2366;51.332;6.610;2023-12-20T00:12:26;101378.59;;;11.77;81.06
4705;BME280;2366;51.332;6.610;2023-12-20T00:14:51;101384.50;;;11.66;81.45
4705;BME280;2366;51.332;6.610;2023-12-20T00:17:16;101393.16;;;11.69;81.51
4705;BME280;2366;51.332;6.610;2023-12-20T00:19:42;101397.00;;;11.64;81.77
4705;BME280;2366;51.332;6.610;2023-12-20T00:22:07;101399.59;;;11.65;81.27
4705;BME280;2366;51.332;6.610;2023-12-20T00:24:32;101417.00;;;11.71;81.66
4705;BME280;2366;51.332;6.610;2023-12-20T00:26:58;101410.31;;;11.80;81.52
4705;BME280;2366;51.332;6.610;2023-12-20T00:29:23;101407.75;;;11.78;81.68
4705;BME280;2366;51.332;6.610;2023-12-20T00:31:48;101409.44;;;11.79;81.52
4705;BME280;2366;51.332;6.610;2023-12-20T00:34:14;101396.25;;;11.78;81.39
4705;BME280;2366;51.332;6.610;2023-12-20T00:36:39;101408.50;;;11.80;80.98
4705;BME280;2366;51.332;6.610;2023-12-20T00:39:05;101402.09;;;11.84;81.29
4705;BME280;2366;51.332;6.610;2023-12-20T00:41:32;101407.78;;;11.94;82.10
4705;BME280;2366;51.332;6.610;2023-12-20T00:43:57;101413.59;;;12.01;82.25
4705;BME280;2366;51.332;6.610;2023-12-20T00:46:22;101417.00;;;11.71;81.12
4705;BME280;2366;51.332;6.610;2023-12-20T00:48:48;101427.47;;;11.90;81.59
4705;BME280;2366;51.332;6.610;2023-12-20T00:51:13;101421.91;;;11.95;82.17
4705;BME280;2366;51.332;6.610;2023-12-20T00:53:39;101430.56;;;11.98;81.61
4705;BME280;2366;51.332;6.610;2023-12-20T00:56:04;101429.72;;;11.98;81.71
4705;BME280;2366;51.332;6.610;2023-12-20T00:58:30;101424.66;;;11.93;82.27
4705;BME280;2366;51.332;6.610;2023-12-20T01:00:55;101424.94;;;11.88;81.75
4705;BME280;2366;51.332;6.610;2023-12-20T01:03:20;101428.56;;;11.86;81.00
4705;BME280;2366;51.332;6.610;2023-12-20T01:05:46;101432.25;;;11.83;82.55
4705;BME280;2366;51.332;6.610;2023-12-20T01:08:11;101432.91;;;11.88;81.93
4705;BME280;2366;51.332;6.610;2023-12-20T01:10:37;101433.03;;;11.85;81.49
4705;BME280;2366;51.332;6.610;2023-12-20T01:13:03;101428.28;;;11.75;81.88
4705;BME280;2366;51.332;6.610;2023-12-20T01:15:28;101425.03;;;11.85;81.17
4705;BME280;2366;51.332;6.610;2023-12-20T01:17:54;101425.38;;;11.63;80.93
4705;BME280;2366;51.332;6.610;2023-12-20T01:20:19;101423.44;;;11.83;81.44
4705;BME280;2366;51.332;6.610;2023-12-20T01:22:45;101424.13;;;11.86;81.65
4705;BME280;2366;51.332;6.610;2023-12-20T01:25:11;101437.34;;;11.88;82.01
4705;BME280;2366;51.332;6.610;2023-12-20T01:27:36;101436.88;;;11.80;80.68
4705;BME280;2366;51.332;6.610;2023-12-20T01:30:02;101435.00;;;11.33;81.17
4705;BME280;2366;51.332;6.610;2023-12-20T01:32:27;101436.81;;;11.32;80.16
4705;BME280;2366;51.332;6.610;2023-12-20T01:34:52;101436.69;;;11.00;80.13
4705;BME280;2366;51.332;6.610;2023-12-20T01:37:18;101439.63;;;11.12;81.52
4705;BME280;2366;51.332;6.610;2023-12-20T01:39:43;101443.94;;;10.97;81.51
4705;BME280;2366;51.332;6.610;2023-12-20T01:42:08;101444.78;;;10.97;80.66
4705;BME280;2366;51.332;6.610;2023-12-20T01:44:34;101442.59;;;10.88;80.30
4705;BME280;2366;51.332;6.610;2023-12-20T01:46:59;101449.69;;;11.05;81.36
4705;BME280;2366;51.332;6.610;2023-12-20T01:49:25;101446.59;;;10.97;80.83
4705;BME280;2366;51.332;6.610;2023-12-20T01:51:50;101451.50;;;10.87;80.17
4705;BME280;2366;51.332;6.610;2023-12-20T01:54:17;101445.41;;;10.67;80.30
4705;BME280;2366;51.332;6.610;2023-12-20T01:56:44;101438.63;;;10.62;81.23
4705;BME280;2366;51.332;6.610;2023-12-20T01:59:10;101453.75;;;10.60;80.74
4705;BME280;2366;51.332;6.610;2023-12-20T02:01:36;101444.44;;;10.51;80.83
4705;BME280;2366;51.332;6.610;2023-12-20T02:04:01;101452.09;;;10.57;80.85
4705;BME280;2366;51.332;6.610;2023-12-20T02:06:29;101446.88;;;10.56;81.52
4705;BME280;2366;51.332;6.610;2023-12-20T02:08:57;101446.25;;;10.51;81.19
4705;BME280;2366;51.332;6.610;2023-12-20T02:11:22;101452.50;;;10.50;81.33
4705;BME280;2366;51.332;6.610;2023-12-20T02:13:48;101439.53;;;10.43;81.22
4705;BME280;2366;51.332;6.610;2023-12-20T02:16:13;101443.78;;;10.47;80.74
4705;BME280;2366;51.332;6.610;2023-12-20T02:18:39;101444.84;;;10.43;80.83
4705;BME280;2366;51.332;6.610;2023-12-20T02:21:09;101452.31;;;10.35;81.36
4705;BME280;2366;51.332;6.610;2023-12-20T02:23:34;101437.88;;;10.41;81.48
4705;BME280;2366;51.332;6.610;2023-12-20T02:25:59;101451.91;;;10.43;80.19
4705;BME280;2366;51.332;6.610;2023-12-20T02:28:25;101461.97;;;10.36;80.79
4705;BME280;2366;51.332;6.610;2023-12-20T02:30:50;101464.31;;;10.23;80.05
4705;BME280;2366;51.332;6.610;2023-12-20T02:33:16;101465.56;;;10.16;80.71
4705;BME280;2366;51.332;6.610;2023-12-20T02:35:41;101458.13;;;10.05;81.01
4705;BME280;2366;51.332;6.610;2023-12-20T02:38:07;101463.19;;;10.10;81.14
4705;BME280;2366;51.332;6.610;2023-12-20T02:40:32;101456.69;;;10.17;80.96
4705;BME280;2366;51.332;6.610;2023-12-20T02:42:57;101454.16;;;10.14;80.92
4705;BME280;2366;51.332;6.610;2023-12-20T02:45:23;101453.47;;;10.11;81.16
4705;BME280;2366;51.332;6.610;2023-12-20T02:47:48;101450.22;;;10.04;80.28
4705;BME280;2366;51.332;6.610;2023-12-20T02:50:13;101458.84;;;10.09;80.66
4705;BME280;2366;51.332;6.610;2023-12-20T02:52:39;101452.88;;;10.04;80.37
4705;BME280;2366;51.332;6.610;2023-12-20T02:55:04;101451.38;;;9.98;80.62
4705;BME280;2366;51.332;6.610;2023-12-20T02:57:30;101461.72;;;10.04;80.90
4705;BME280;2366;51.332;6.610;2023-12-20T02:59:55;101452.69;;;9.90;80.83
4705;BME280;2366;51.332;6.610;2023-12-20T03:02:20;101457.13;;;9.89;79.99
4705;BME280;2366;51.332;6.610;2023-12-20T03:04:46;101460.69;;;9.88;81.35
4705;BME280;2366;51.332;6.610;2023-12-20T03:07:11;101460.34;;;9.96;80.62
4705;BME280;2366;51.332;6.610;2023-12-20T03:09:37;101460.63;;;10.08;81.11
4705;BME280;2366;51.332;6.610;2023-12-20T03:12:03;101458.69;;;10.12;81.61
4705;BME280;2366;51.332;6.610;2023-12-20T03:14:28;101450.09;;;10.07;81.71
4705;BME280;2366;51.332;6.610;2023-12-20T03:16:53;101454.38;;;10.10;81.34
4705;BME280;2366;51.332;6.610;2023-12-20T03:19:19;101443.44;;;10.17;81.98
4705;BME280;2366;51.332;6.610;2023-12-20T03:21:44;101440.00;;;10.15;80.65
4705;BME280;2366;51.332;6.610;2023-12-20T03:24:10;101449.66;;;10.16;81.70
4705;BME280;2366;51.332;6.610;2023-12-20T03:26:35;101440.22;;;10.11;81.34
4705;BME280;2366;51.332;6.610;2023-12-20T03:29:01;101452.25;;;10.18;80.75
4705;BME280;2366;51.332;6.610;2023-12-20T03:31:26;101445.50;;;10.30;81.27
4705;BME280;2366;51.332;6.610;2023-12-20T03:33:51;101440.19;;;10.30;80.86
4705;BME280;2366;51.332;6.610;2023-12-20T03:36:19;101452.88;;;10.23;81.35
4705;BME280;2366;51.332;6.610;2023-12-20T03:38:44;101451.22;;;10.20;81.42
4705;BME280;2366;51.332;6.610;2023-12-20T03:41:09;101448.09;;;10.31;81.06
4705;BME280;2366;51.332;6.610;2023-12-20T03:43:35;101447.50;;;10.24;81.06
4705;BME280;2366;51.332;6.610;2023-12-20T03:46:00;101448.22;;;10.28;81.41
4705;BME280;2366;51.332;6.610;2023-12-20T03:48:26;101443.28;;;10.20;80.46
4705;BME280;2366;51.332;6.610;2023-12-20T03:50:51;101444.78;;;10.26;80.95
4705;BME280;2366;51.332;6.610;2023-12-20T03:53:16;101441.34;;;10.24;81.60
4705;BME280;2366;51.332;6.610;2023-12-20T03:55:42;101439.38;;;10.27;81.58
4705;BME280;2366;51.332;6.610;2023-12-20T03:58:07;101447.72;;;10.20;80.66
4705;BME280;2366;51.332;6.610;2023-12-20T04:00:32;101439.78;;;10.01;80.74
4705;BME280;2366;51.332;6.610;2023-12-20T04:02:58;101436.63;;;9.93;80.83
4705;BME280;2366;51.332;6.610;2023-12-20T04:05:23;101431.50;;;9.90;80.13
4705;BME280;2366;51.332;6.610;2023-12-20T04:07:48;101434.19;;;9.69;81.03
4705;BME280;2366;51.332;6.610;2023-12-20T04:10:15;101446.81;;;9.64;81.25
4705;BME280;2366;51.332;6.610;2023-12-20T04:12:41;101441.66;;;9.61;81.03
4705;BME280;2366;51.332;6.610;2023-12-20T04:15:06;101441.34;;;9.48;80.68
4705;BME280;2366;51.332;6.610;2023-12-20T04:17:34;101440.34;;;9.51;80.90
4705;BME280;2366;51.332;6.610;2023-12-20T04:20:00;101426.97;;;9.54;80.87
4705;BME280;2366;51.332;6.610;2023-12-20T04:22:26;101429.53;;;9.55;80.84
4705;BME280;2366;51.332;6.610;2023-12-20T04:24:51;101432.34;;;9.52;80.96
4705;BME280;2366;51.332;6.610;2023-12-20T04:27:16;101426.16;;;9.52;81.58
4705;BME280;2366;51.332;6.610;2023-12-20T04:29:42;101427.69;;;9.57;80.64
4705;BME280;2366;51.332;6.610;2023-12-20T04:32:07;101424.91;;;9.41;80.44
4705;BME280;2366;51.332;6.610;2023-12-20T04:34:33;101433.63;;;9.43;80.79
4705;BME280;2366;51.332;6.610;2023-12-20T04:36:58;101450.09;;;9.50;80.81
4705;BME280;2366;51.332;6.610;2023-12-20T04:39:24;101441.47;;;9.45;81.16
4705;BME280;2366;51.332;6.610;2023-12-20T04:41:49;101444.84;;;9.49;80.64
4705;BME280;2366;51.332;6.610;2023-12-20T04:44:15;101447.78;;;9.42;81.16
4705;BME280;2366;51.332;6.610;2023-12-20T04:46:41;101441.84;;;9.37;80.19
4705;BME280;2366;51.332;6.610;2023-12-20T04:49:06;101450.63;;;9.38;80.73
4705;BME280;2366;51.332;6.610;2023-12-20T04:51:35;101454.06;;;9.40;80.67
4705;BME280;2366;51.332;6.610;2023-12-20T04:54:01;101466.03;;;9.49;81.51
4705;BME280;2366;51.332;6.610;2023-12-20T04:56:27;101444.69;;;9.52;81.35
4705;BME280;2366;51.332;6.610;2023-12-20T04:58:52;101437.63;;;9.52;81.43
4705;BME280;2366;51.332;6.610;2023-12-20T05:01:17;101444.31;;;9.61;80.67
4705;BME280;2366;51.332;6.610;2023-12-20T05:03:43;101443.00;;;9.51;80.71
4705;BME280;2366;51.332;6.610;2023-12-20T05:06:09;101435.47;;;9.41;80.98
4705;BME280;2366;51.332;6.610;2023-12-20T05:08:34;101448.78;;;9.40;81.04
4705;BME280;2366;51.332;6.610;2023-12-20T05:11:00;101454.22;;;9.37;81.22
4705;BME280;2366;51.332;6.610;2023-12-20T05:13:25;101448.66;;;9.62;81.77
4705;BME280;2366;51.332;6.610;2023-12-20T05:15:51;101446.84;;;9.62;81.17
4705;BME280;2366;51.332;6.610;2023-12-20T05:18:16;101449.38;;;9.65;81.62
4705;BME280;2366;51.332;6.610;2023-12-20T05:20:41;101452.38;;;9.77;81.03
4705;BME280;2366;51.332;6.610;2023-12-20T05:23:07;101447.59;;;9.85;81.72
4705;BME280;2366;51.332;6.610;2023-12-20T05:25:33;101453.81;;;9.84;82.10
4705;BME280;2366;51.332;6.610;2023-12-20T05:27:58;101437.66;;;9.90;80.68
4705;BME280;2366;51.332;6.610;2023-12-20T05:30:23;101437.53;;;9.93;81.67
4705;BME280;2366;51.332;6.610;2023-12-20T05:32:49;101442.00;;;10.10;81.65
4705;BME280;2366;51.332;6.610;2023-12-20T05:35:15;101442.94;;;10.09;81.39
4705;BME280;2366;51.332;6.610;2023-12-20T05:37:41;101431.50;;;10.08;81.28
4705;BME280;2366;51.332;6.610;2023-12-20T05:40:06;101437.75;;;10.06;81.43
4705;BME280;2366;51.332;6.610;2023-12-20T05:42:35;101434.75;;;10.14;80.85
4705;BME280;2366;51.332;6.610;2023-12-20T05:45:01;101425.31;;;10.08;80.96
4705;BME280;2366;51.332;6.610;2023-12-20T05:47:26;101430.59;;;10.08;80.58
4705;BME280;2366;51.332;6.610;2023-12-20T05:49:52;101439.22;;;10.13;81.22
4705;BME280;2366;51.332;6.610;2023-12-20T05:52:18;101437.81;;;10.23;81.12
4705;BME280;2366;51.332;6.610;2023-12-20T05:54:43;101438.75;;;10.22;80.98
4705;BME280;2366;51.332;6.610;2023-12-20T05:57:08;101431.09;;;10.16;81.13
4705;BME280;2366;51.332;6.610;2023-12-20T05:59:34;101430.03;;;10.20;81.53
4705;BME280;2366;51.332;6.610;2023-12-20T06:01:59;101432.03;;;10.15;81.01
4705;BME280;2366;51.332;6.610;2023-12-20T06:04:24;101426.88;;;10.12;81.09
4705;BME280;2366;51.332;6.610;2023-12-20T06:06:50;101426.38;;;10.04;80.40
4705;BME280;2366;51.332;6.610;2023-12-20T06:09:15;101427.66;;;10.14;80.85
4705;BME280;2366;51.332;6.610;2023-12-20T06:11:40;101435.56;;;9.97;80.42
4705;BME280;2366;51.332;6.610;2023-12-20T06:14:06;101428.63;;;10.13;80.85
4705;BME280;2366;51.332;6.610;2023-12-20T06:16:31;101436.19;;;10.21;80.51
4705;BME280;2366;51.332;6.610;2023-12-20T06:18:57;101438.28;;;10.33;80.75
4705;BME280;2366;51.332;6.610;2023-12-20T06:21:22;101450.94;;;10.26;80.74
4705;BME280;2366;51.332;6.610;2023-12-20T06:23:47;101455.38;;;10.26;81.57
4705;BME280;2366;51.332;6.610;2023-12-20T06:26:13;101456.16;;;10.28;80.43
4705;BME280;2366;51.332;6.610;2023-12-20T06:28:38;101453.88;;;10.20;81.53
4705;BME280;2366;51.332;6.610;2023-12-20T06:31:03;101451.06;;;10.23;81.33
4705;BME280;2366;51.332;6.610;2023-12-20T06:33:29;101450.38;;;10.39;81.63
4705;BME280;2366;51.332;6.610;2023-12-20T06:35:56;101450.94;;;10.45;80.89
4705;BME280;2366;51.332;6.610;2023-12-20T06:38:22;101443.72;;;10.30;80.50
4705;BME280;2366;51.332;6.610;2023-12-20T06:40:47;101438.47;;;10.28;80.30
4705;BME280;2366;51.332;6.610;2023-12-20T06:43:13;101435.41;;;10.38;80.56
4705;BME280;2366;51.332;6.610;2023-12-20T06:45:38;101440.75;;;10.36;80.23
4705;BME280;2366;51.332;6.610;2023-12-20T06:48:04;101443.06;;;10.44;80.41
4705;BME280;2366;51.332;6.610;2023-12-20T06:50:30;101450.38;;;10.39;80.99
4705;BME280;2366;51.332;6.610;2023-12-20T06:52:55;101439.53;;;10.43;81.11
4705;BME280;2366;51.332;6.610;2023-12-20T06:55:21;101438.22;;;10.52;80.46
4705;BME280;2366;51.332;6.610;2023-12-20T06:57:46;101430.56;;;10.46;80.76
4705;BME280;2366;51.332;6.610;2023-12-20T07:00:11;101445.63;;;10.26;80.65
4705;BME280;2366;51.332;6.610;2023-12-20T07:02:37;101435.03;;;10.45;80.91
4705;BME280;2366;51.332;6.610;2023-12-20T07:05:03;101445.88;;;10.58;79.49
4705;BME280;2366;51.332;6.610;2023-12-20T07:07:29;101439.69;;;10.58;80.01
4705;BME280;2366;51.332;6.610;2023-12-20T07:09:55;101438.69;;;10.60;80.55
4705;BME280;2366;51.332;6.610;2023-12-20T07:12:20;101437.84;;;10.60;80.27
4705;BME280;2366;51.332;6.610;2023-12-20T07:14:46;101427.31;;;10.58;80.31
4705;BME280;2366;51.332;6.610;2023-12-20T07:17:11;101441.44;;;10.59;80.42
4705;BME280;2366;51.332;6.610;2023-12-20T07:19:39;101436.50;;;10.68;79.50
4705;BME280;2366;51.332;6.610;2023-12-20T07:22:05;101433.97;;;10.67;79.01
4705;BME280;2366;51.332;6.610;2023-12-20T07:24:31;101426.75;;;10.69;79.25
4705;BME280;2366;51.332;6.610;2023-12-20T07:26:56;101437.16;;;10.74;79.71
4705;BME280;2366;51.332;6.610;2023-12-20T07:29:22;101437.06;;;10.75;79.30
4705;BME280;2366;51.332;6.610;2023-12-20T07:31:47;101433.78;;;10.70;79.18
4705;BME280;2366;51.332;6.610;2023-12-20T07:34:12;101434.50;;;10.91;79.20
4705;BME280;2366;51.332;6.610;2023-12-20T07:36:38;101433.31;;;10.97;78.35
4705;BME280;2366;51.332;6.610;2023-12-20T07:39:03;101423.34;;;10.84;76.70
4705;BME280;2366;51.332;6.610;2023-12-20T07:41:28;101432.63;;;10.76;78.50
4705;BME280;2366;51.332;6.610;2023-12-20T07:43:54;101423.81;;;10.75;79.17
4705;BME280;2366;51.332;6.610;2023-12-20T07:46:21;101446.81;;;10.92;77.74
4705;BME280;2366;51.332;6.610;2023-12-20T07:48:48;101436.81;;;10.80;77.97
4705;BME280;2366;51.332;6.610;2023-12-20T07:51:14;101439.56;;;10.96;77.89
4705;BME280;2366;51.332;6.610;2023-12-20T07:53:39;101427.09;;;10.98;76.22
4705;BME280;2366;51.332;6.610;2023-12-20T07:56:18;101439.41;;;10.99;75.92
4705;BME280;2366;51.332;6.610;2023-12-20T07:58:44;101441.56;;;11.08;76.09
4705;BME280;2366;51.332;6.610;2023-12-20T08:01:13;101448.69;;;11.07;75.88
4705;BME280;2366;51.332;6.610;2023-12-20T08:03:38;101439.16;;;11.03;75.81
4705;BME280;2366;51.332;6.610;2023-12-20T08:06:04;101436.06;;;11.13;74.61
4705;BME280;2366;51.332;6.610;2023-12-20T08:08:30;101444.41;;;11.05;75.14
4705;BME280;2366;51.332;6.610;2023-12-20T08:10:55;101432.38;;;11.15;73.14
4705;BME280;2366;51.332;6.610;2023-12-20T08:13:23;101447.63;;;11.27;75.49
4705;BME280;2366;51.332;6.610;2023-12-20T08:15:51;101431.75;;;10.93;72.61
4705;BME280;2366;51.332;6.610;2023-12-20T08:18:16;101436.19;;;11.09;74.67
4705;BME280;2366;51.332;6.610;2023-12-20T08:20:41;101431.34;;;11.18;74.79
4705;BME280;2366;51.332;6.610;2023-12-20T08:23:07;101438.50;;;11.33;72.90
4705;BME280;2366;51.332;6.610;2023-12-20T08:25:32;101439.53;;;11.30;75.26
4705;BME280;2366;51.332;6.610;2023-12-20T08:27:58;101432.97;;;11.20;72.69
4705;BME280;2366;51.332;6.610;2023-12-20T08:30:23;101443.06;;;11.14;74.49
4705;BME280;2366;51.332;6.610;2023-12-20T08:32:48;101443.84;;;11.16;73.26
4705;BME280;2366;51.332;6.610;2023-12-20T08:35:14;101454.94;;;11.06;73.27
4705;BME280;2366;51.332;6.610;2023-12-20T08:37:39;101457.03;;;11.17;71.58
4705;BME280;2366;51.332;6.610;2023-12-20T08:40:05;101468.69;;;11.48;71.99
4705;BME280;2366;51.332;6.610;2023-12-20T08:42:31;101462.47;;;11.31;73.12
4705;BME280;2366;51.332;6.610;2023-12-20T08:44:57;101453.31;;;11.04;71.81
4705;BME280;2366;51.332;6.610;2023-12-20T08:47:23;101451.66;;;11.01;71.59
4705;BME280;2366;51.332;6.610;2023-12-20T08:49:49;101447.88;;;11.23;72.43
4705;BME280;2366;51.332;6.610;2023-12-20T08:52:14;101447.75;;;11.26;71.79
4705;BME280;2366;51.332;6.610;2023-12-20T08:54:39;101453.09;;;11.42;72.27
4705;BME280;2366;51.332;6.610;2023-12-20T08:57:05;101443.50;;;11.39;73.07
4705;BME280;2366;51.332;6.610;2023-12-20T08:59:32;101450.81;;;11.51;72.64
4705;BME280;2366;51.332;6.610;2023-12-20T09:01:57;101445.31;;;11.55;71.32
4705;BME280;2366;51.332;6.610;2023-12-20T09:04:23;101436.75;;;11.49;71.68
4705;BME280;2366;51.332;6.610;2023-12-20T09:06:48;101437.47;;;11.36;71.02
4705;BME280;2366;51.332;6.610;2023-12-20T09:09:13;101430.41;;;11.52;71.62
4705;BME280;2366;51.332;6.610;2023-12-20T09:11:39;101432.97;;;11.54;71.60
4705;BME280;2366;51.332;6.610;2023-12-20T09:14:05;101431.59;;;11.62;71.33
4705;BME280;2366;51.332;6.610;2023-12-20T09:16:30;101438.19;;;11.55;70.75
4705;BME280;2366;51.332;6.610;2023-12-20T09:18:56;101432.06;;;11.70;71.12
4705;BME280;2366;51.332;6.610;2023-12-20T09:21:22;101440.28;;;11.66;71.45
4705;BME280;2366;51.332;6.610;2023-12-20T09:23:47;101433.28;;;11.81;70.06
4705;BME280;2366;51.332;6.610;2023-12-20T09:26:13;101431.00;;;11.57;69.63
4705;BME280;2366;51.332;6.610;2023-12-20T09:28:38;101433.75;;;11.56;69.59
4705;BME280;2366;51.332;6.610;2023-12-20T09:31:05;101424.78;;;11.74;70.24
4705;BME280;2366;51.332;6.610;2023-12-20T09:33:30;101425.72;;;11.73;69.67
4705;BME280;2366;51.332;6.610;2023-12-20T09:35:56;101433.19;;;11.82;70.34
4705;BME280;2366;51.332;6.610;2023-12-20T09:38:21;101426.28;;;11.96;70.27
4705;BME280;2366;51.332;6.610;2023-12-20T09:40:47;101433.16;;;12.00;68.66
4705;BME280;2366;51.332;6.610;2023-12-20T09:43:19;101431.41;;;11.99;69.96
4705;BME280;2366;51.332;6.610;2023-12-20T09:45:46;101432.13;;;12.02;69.52
4705;BME280;2366;51.332;6.610;2023-12-20T09:48:12;101436.91;;;12.11;69.13
4705;BME280;2366;51.332;6.610;2023-12-20T09:50:40;101442.66;;;11.88;69.14
4705;BME280;2366;51.332;6.610;2023-12-20T09:53:07;101438.03;;;11.91;68.92
4705;BME280;2366;51.332;6.610;2023-12-20T09:55:35;101431.09;;;11.89;68.13
4705;BME280;2366;51.332;6.610;2023-12-20T09:58:01;101435.34;;;11.76;68.08
4705;BME280;2366;51.332;6.610;2023-12-20T10:00:26;101437.25;;;11.89;68.20
4705;BME280;2366;51.332;6.610;2023-12-20T10:02:57;101443.53;;;11.88;67.37
4705;BME280;2366;51.332;6.610;2023-12-20T10:05:27;101436.16;;;11.94;67.07
4705;BME280;2366;51.332;6.610;2023-12-20T10:07:53;101442.50;;;11.91;69.11
4705;BME280;2366;51.332;6.610;2023-12-20T10:10:18;101422.97;;;11.59;66.76
4705;BME280;2366;51.332;6.610;2023-12-20T10:13:03;101429.84;;;11.63;68.34
4705;BME280;2366;51.332;6.610;2023-12-20T10:15:29;101424.72;;;11.76;66.85
4705;BME280;2366;51.332;6.610;2023-12-20T10:17:55;101425.91;;;11.86;68.09
4705;BME280;2366;51.332;6.610;2023-12-20T10:20:21;101430.50;;;12.00;66.65
4705;BME280;2366;51.332;6.610;2023-12-20T10:22:46;101427.88;;;11.82;67.83
4705;BME280;2366;51.332;6.610;2023-12-20T10:25:12;101415.28;;;11.86;67.62
4705;BME280;2366;51.332;6.610;2023-12-20T10:27:38;101408.19;;;12.02;68.01
4705;BME280;2366;51.332;6.610;2023-12-20T10:30:03;101422.31;;;12.19;67.06
4705;BME280;2366;51.332;6.610;2023-12-20T10:32:29;101410.66;;;12.05;67.18
4705;BME280;2366;51.332;6.610;2023-12-20T10:34:55;101408.94;;;12.20;67.15
4705;BME280;2366;51.332;6.610;2023-12-20T10:37:21;101403.81;;;12.17;66.42
4705;BME280;2366;51.332;6.610;2023-12-20T10:39:51;101397.53;;;12.18;66.42
4705;BME280;2366;51.332;6.610;2023-12-20T10:42:19;101395.50;;;12.23;66.30
4705;BME280;2366;51.332;6.610;2023-12-20T10:44:46;101399.84;;;12.24;66.42
4705;BME280;2366;51.332;6.610;2023-12-20T10:47:13;101395.47;;;12.39;66.07
4705;BME280;2366;51.332;6.610;2023-12-20T10:49:39;101393.50;;;12.43;66.13
4705;BME280;2366;51.332;6.610;2023-12-20T10:52:05;101393.75;;;12.22;66.26
4705;BME280;2366;51.332;6.610;2023-12-20T10:54:31;101390.56;;;12.31;66.11
4705;BME280;2366;51.332;6.610;2023-12-20T10:56:57;101405.75;;;12.29;65.37
4705;BME280;2366;51.332;6.610;2023-12-20T10:59:25;101416.75;;;12.23;64.02
4705;BME280;2366;51.332;6.610;2023-12-20T11:01:54;101400.09;;;12.36;64.29
4705;BME280;2366;51.332;6.610;2023-12-20T11:04:34;101417.53;;;12.25;64.11
4705;BME280;2366;51.332;6.610;2023-12-20T11:07:25;101405.53;;;12.18;63.84
4705;BME280;2366;51.332;6.610;2023-12-20T11:10:12;101399.78;;;12.10;64.75
4705;BME280;2366;51.332;6.610;2023-12-20T11:12:52;101404.16;;;12.11;64.48
4705;BME280;2366;51.332;6.610;2023-12-20T11:15:19;101388.63;;;12.19;64.32
4705;BME280;2366;51.332;6.610;2023-12-20T11:17:45;101388.28;;;12.25;64.52
4705;BME280;2366;51.332;6.610;2023-12-20T11:20:13;101375.16;;;12.22;64.30
4705;BME280;2366;51.332;6.610;2023-12-20T11:22:52;101375.28;;;12.05;64.63
4705;BME280;2366;51.332;6.610;2023-12-20T11:25:18;101382.44;;;12.19;64.44
4705;BME280;2366;51.332;6.610;2023-12-20T11:27:43;101383.38;;;12.33;64.13
4705;BME280;2366;51.332;6.610;2023-12-20T11:30:10;101381.69;;;12.17;64.46
4705;BME280;2366;51.332;6.610;2023-12-20T11:32:36;101379.44;;;12.25;64.12
4705;BME280;2366;51.332;6.610;2023-12-20T11:37:38;101374.31;;;12.52;63.36
4705;BME280;2366;51.332;6.610;2023-12-20T11:40:08;101363.91;;;12.63;63.04
4705;BME280;2366;51.332;6.610;2023-12-20T11:42:40;101376.63;;;12.72;62.50
4705;BME280;2366;51.332;6.610;2023-12-20T11:45:09;101381.34;;;12.53;63.11
4705;BME280;2366;51.332;6.610;2023-12-20T11:47:35;101371.78;;;12.65;63.06
4705;BME280;2366;51.332;6.610;2023-12-20T11:50:01;101367.19;;;12.52;62.88
4705;BME280;2366;51.332;6.610;2023-12-20T11:52:29;101369.41;;;12.60;63.08
4705;BME280;2366;51.332;6.610;2023-12-20T11:54:54;101358.38;;;12.52;63.77
4705;BME280;2366;51.332;6.610;2023-12-20T11:57:20;101366.06;;;12.57;63.59
4705;BME280;2366;51.332;6.610;2023-12-20T11:59:45;101348.44;;;12.40;63.68
4705;BME280;2366;51.332;6.610;2023-12-20T12:02:11;101345.06;;;12.52;63.98
4705;BME280;2366;51.332;6.610;2023-12-20T12:04:37;101342.59;;;12.03;65.03
4705;BME280;2366;51.332;6.610;2023-12-20T12:07:02;101343.81;;;12.13;65.18
4705;BME280;2366;51.332;6.610;2023-12-20T12:09:28;101360.06;;;12.23;64.64
4705;BME280;2366;51.332;6.610;2023-12-20T12:11:54;101362.63;;;12.24;64.84
4705;BME280;2366;51.332;6.610;2023-12-20T12:14:19;101348.03;;;12.31;64.45
4705;BME280;2366;51.332;6.610;2023-12-20T12:16:46;101351.31;;;12.21;64.45
4705;BME280;2366;51.332;6.610;2023-12-20T12:19:24;101337.28;;;12.03;65.31
4705;BME280;2366;51.332;6.610;2023-12-20T12:21:50;101342.75;;;12.16;65.10
4705;BME280;2366;51.332;6.610;2023-12-20T12:24:20;101342.84;;;12.14;64.97
4705;BME280;2366;51.332;6.610;2023-12-20T12:26:50;101335.75;;;12.15;65.26
4705;BME280;2366;51.332;6.610;2023-12-20T12:29:16;101340.66;;;12.37;64.33
4705;BME280;2366;51.332;6.610;2023-12-20T12:31:41;101332.47;;;12.40;64.31
4705;BME280;2366;51.332;6.610;2023-12-20T12:34:07;101335.19;;;12.24;64.73
4705;BME280;2366;51.332;6.610;2023-12-20T12:36:34;101333.44;;;12.39;64.42
4705;BME280;2366;51.332;6.610;2023-12-20T12:39:02;101326.00;;;12.29;64.97
4705;BME280;2366;51.332;6.610;2023-12-20T12:41:29;101320.91;;;12.41;65.15
4705;BME280;2366;51.332;6.610;2023-12-20T12:43:54;101321.50;;;12.46;64.78
4705;BME280;2366;51.332;6.610;2023-12-20T12:46:20;101316.38;;;12.43;65.41
4705;BME280;2366;51.332;6.610;2023-12-20T12:48:45;101320.91;;;12.41;66.17
4705;BME280;2366;51.332;6.610;2023-12-20T12:51:11;101321.09;;;12.38;66.51
4705;BME280;2366;51.332;6.610;2023-12-20T12:53:38;101313.66;;;12.28;67.29
4705;BME280;2366;51.332;6.610;2023-12-20T12:56:04;101308.13;;;12.17;67.87
4705;BME280;2366;51.332;6.610;2023-12-20T12:58:30;101327.09;;;12.11;68.28
4705;BME280;2366;51.332;6.610;2023-12-20T13:00:55;101317.22;;;12.13;68.20
4705;BME280;2366;51.332;6.610;2023-12-20T13:03:21;101322.69;;;12.10;69.01
4705;BME280;2366;51.332;6.610;2023-12-20T13:05:46;101314.13;;;12.05;68.79
4705;BME280;2366;51.332;6.610;2023-12-20T13:08:14;101312.94;;;11.95;69.57